Tiempo atmosférico en la estación meteorológica de Cubillas de Rueda, León (916 m.)



Fecha
DESCASC
Temp. máxima en grados centígrados (hora)
DESCASC
Temp. mínima en grados centígrados (hora)
DESCASC
Temp. media en grados centígrados
DESCASC
Racha de viento máxima en m/sg (hora)
DESCASC
Velocidad máxima media en intervalos de 10 minutos(hora)
DESCASC
Precipitaciones diarias en mm
DESCASC
Precipitaciones de 00:00 a 06:00 en mm
DESCASC
Precipitaciones de 06:00 a 12:00 en mm
DESCASC
Precipitaciones de 12:00 a 18:00 en mm
DESCASC
Precipitaciones de 18:00 a 24:00 en mm
DESCASC
17-02-2019 13.5 (15:50) -1.8 (07:40) 5.9 5.83 (15:30) 3.33 (11:40) 0 0 0 0 0
16-02-2019 16.1 (16:20) -2.3 (08:00) 6.9 5.83 (14:50) 3.33 (15:00) 0 0 0 0 0
15-02-2019 15.9 (16:40) -4.5 (07:20) 5.7 4.72 (14:10) 2.78 (14:30) 0 0 0 0 0
14-02-2019 15.3 (16:50) -3.4 (-00:0) 6 5 (16:00) 2.78 (12:40) 0 0 0 0 0
13-02-2019 13.9 (16:00) -5.1 (-00:0) 4.4 4.72 (15:40) 2.5 (15:50) 0 0 0 0 0
12-02-2019 13.5 (16:50) -4.4 (-00:0) 4.5 5.28 (14:50) 2.78 (11:50) 0 0 0 0 0
11-02-2019 10.1 (16:20) -4.8 (-00:0) 2.7 5.28 (16:30) 3.33 (16:30) 0 0 0 0 0
10-02-2019 11.1 (15:50) -0.2 (00:00) 5.5 13.89 (14:40) 8.61 (14:40) 2.4 0 2.4 0 0
09-02-2019 8.7 (17:10) 2 (00:00) 5.3 7.78 (17:00) 5 (17:00) 0 0 0 0 0
08-02-2019 6.6 (16:00) -4.5 (-00:0) 1 4.44 (15:20) 2.22 (13:30) 0 0 0 0 0
07-02-2019 11.3 (15:30) -1.7 (-00:0) 4.8 6.94 (14:50) 4.17 (14:20) -- -- -- -- 0
06-02-2019 11.7 (15:00) -2.5 (-00:0) 4.6 6.11 (15:30) 3.61 (14:50) -- -- -- -- --
05-02-2019 11.7 (16:50) -3.7 (-00:0) 4 5 (14:50) 2.78 (16:10) -- -- -- -- --
04-02-2019 7 (17:00) -7.1 (-00:0) 0 3.89 (15:10) 2.22 (15:10) -- -- -- -- --
03-02-2019 4.6 (15:40) -6.3 (-00:0) -0.9 6.11 (01:40) 3.33 (01:30) -- -- -- -- --
02-02-2019 1.7 (16:50) -2.3 (-00:0) -0.3 12.22 (11:50) 8.33 (11:40) -- -- -- -- --
01-02-2019 4.6 (00:20) -0.1 (00:00) 2.2 15.28 (10:20) 7.78 (10:10) -- -- -- -- --
31-01-2019 9.7 (14:30) 1.6 (00:00) 5.6 13.89 (16:40) 7.5 (15:50) -- -- -- -- --
30-01-2019 4.7 (14:00) -3.6 (-00:0) 0.5 10 (12:30) 5.83 (12:10) -- -- -- -- --
29-01-2019 10 (15:30) -2.8 (-00:0) 3.6 15.28 (14:50) 10 (14:30) -- -- -- -- --
28-01-2019 10.6 (12:50) -2.2 (-00:0) 4.2 14.44 (14:00) 9.17 (14:00) -- -- -- -- --
27-01-2019 8.2 (13:00) -2.7 (-00:0) 2.7 12.78 (13:00) 7.5 (14:40) 0 0 0 0 0
26-01-2019 9.8 (16:40) -4.4 (-00:0) 2.7 5.28 (14:40) 3.06 (14:10) 0 0 0 0 0
25-01-2019 13.2 (14:50) -2.1 (-00:0) 5.5 8.61 (00:50) 6.11 (00:50) 0 0 0 0 0
24-01-2019 13 (13:50) 7.1 (00:00) 10 15.83 (12:20) 9.72 (13:20) 0 0 0 0 0
23-01-2019 11 (15:40) 1.1 (00:00) 6.1 17.5 (17:10) 9.44 (17:10) 0 0 0 0 0
22-01-2019 3.7 (15:40) -2.6 (-00:0) 0.6 9.72 (14:40) 5.83 (14:40) 0 0 0 0 0
21-01-2019 7.1 (14:40) -5.6 (-00:0) 0.8 7.22 (15:10) 4.72 (17:50) 0 0 0 0 0
20-01-2019 6.3 (15:00) -2.1 (-00:0) 2.1 9.72 (15:30) 6.11 (17:40) 0 0 0 0 0
19-01-2019 1.3 (00:00) -0.8 (-00:0) 0.2 3.61 (05:50) 1.94 (05:50) 0 0 0 0 0

Gráficas

Temp. máximas Temp. mínimas Temp. medias Precipitaciones Rachas de viento máximas Velocidades máximas media en intervalos de 10 minutos

Datos horarios

Fecha y hora oficial Temperatura (ºC) Velocidad del viento (km/h) Dirección del viento Racha (km/h) Dirección de racha Precipitación (mm) Presión (hPa) Tendencia (hPa) Humedad (%)
2019-02-17 23:00:00 -0.3 3 Este 5 Norte 0 -- -- 75
2019-02-17 22:00:00 0.8 3 Nordeste 6 Norte 0 -- -- 72
2019-02-17 21:00:00 1.2 5 Nordeste 8 Este 0 -- -- 70
2019-02-17 20:00:00 3.1 7 Nordeste 8 Nordeste 0 -- -- 63
2019-02-17 19:00:00 7.3 5 Sudeste 10 Sur 0 -- -- 52
2019-02-17 18:00:00 12.1 6 Sur 14 Sur 0 -- -- 36
2019-02-17 17:00:00 12.6 8 Sur 17 Sudoeste 0 -- -- 36
2019-02-17 16:00:00 13.5 9 Sudoeste 21 Sur 0 -- -- 37
2019-02-17 15:00:00 12.9 10 Sur 19 Sudoeste 0 -- -- 39
2019-02-17 14:00:00 12 8 Sudoeste 18 Sudoeste 0 -- -- 40
2019-02-17 13:00:00 10.7 8 Oeste 19 Sudoeste 0 -- -- 42
2019-02-17 12:00:00 9.5 9 Sudoeste 19 Sur 0 -- -- 46
2019-02-17 11:00:00 8.2 9 Sudeste 17 Sudeste 0 -- -- 57
2019-02-17 10:00:00 5.2 3 Este 10 Este 0 -- -- 69
2019-02-17 09:00:00 -0.3 5 Norte 8 Norte 0 -- -- 88
2019-02-17 08:00:00 -1.6 4 Nordeste 6 Este 0 -- -- 87
2019-02-17 07:00:00 -0.2 4 Nordeste 11 Este 0 -- -- 80
2019-02-17 06:00:00 2 0 Calma 12 Este 0 -- -- 75
2019-02-17 05:00:00 2.6 8 Nordeste 11 Este 0 -- -- 74
2019-02-17 04:00:00 1.6 6 Nordeste 11 Nordeste 0 -- -- 78
2019-02-17 03:00:00 -1.2 4 Nordeste 7 Nordeste 0 -- -- 89
2019-02-17 02:00:00 -1.2 2 Nordeste 7 Nordeste 0 -- -- 88
2019-02-17 01:00:00 -0.3 3 Nordeste 7 Nordeste 0 -- -- 85
2019-02-17 00:00:00 0 3 Nordeste 8 Nordeste 0 -- -- 86
2019-02-16 23:00:00 0.5 4 Nordeste 6 Este 0 -- -- 82
2019-02-16 22:00:00 1.9 4 Nordeste 8 Nordeste 0 -- -- 76
2019-02-16 21:00:00 3.1 6 Este 8 Nordeste 0 -- -- 74
2019-02-16 20:00:00 5.9 0 Calma 8 Sudeste 0 -- -- 66
2019-02-16 19:00:00 11 6 Sur 13 Sur 0 -- -- 52
2019-02-16 18:00:00 14.3 7 Sur 16 Sur 0 -- -- 42
2019-02-16 17:00:00 15.4 11 Sur 18 Sur 0 -- -- 38
2019-02-16 16:00:00 16 7 Sur 19 Sur 0 -- -- 37
2019-02-16 15:00:00 15.3 12 Sur 21 Sur 0 -- -- 33
2019-02-16 14:00:00 14.1 5 Oeste 14 Noroeste 0 -- -- 39
2019-02-16 13:00:00 12.3 6 Noroeste 13 Oeste 0 -- -- 43
2019-02-16 12:00:00 10.2 6 Oeste 9 Oeste 0 -- -- 52
2019-02-16 11:00:00 6.8 3 Norte 9 Nordeste 0 -- -- 64
2019-02-16 10:00:00 3.5 3 Nordeste 5 Nordeste 0 -- -- 78
2019-02-16 09:00:00 -1.3 4 Este 8 Norte 0 -- -- 90
2019-02-16 08:00:00 -2.3 5 Nordeste 11 Nordeste 0 -- -- 86
2019-02-16 07:00:00 -1.5 6 Nordeste 10 Nordeste 0 -- -- 87
2019-02-16 06:00:00 -1.4 8 Nordeste 10 Nordeste 0 -- -- 87
2019-02-16 05:00:00 -1.4 6 Nordeste 9 Nordeste 0 -- -- 87
2019-02-16 04:00:00 -1.3 6 Nordeste 8 Nordeste 0 -- -- 88
2019-02-16 03:00:00 -0.8 5 Nordeste 9 Nordeste 0 -- -- 86
2019-02-16 02:00:00 -1 4 Nordeste 6 Nordeste 0 -- -- 87
2019-02-16 01:00:00 -0.1 5 Nordeste 8 Nordeste 0 -- -- 84
2019-02-16 00:00:00 0.8 4 Nordeste 9 Nordeste 0 -- -- 82
2019-02-15 23:00:00 2.1 6 Nordeste 10 Nordeste 0 -- -- 81
2019-02-15 22:00:00 2.4 6 Nordeste 8 Nordeste 0 -- -- 82
2019-02-15 21:00:00 3.3 5 Nordeste 10 Este 0 -- -- 74
2019-02-15 20:00:00 4.8 2 Sudeste 5 Sur 0 -- -- 68
2019-02-15 19:00:00 9.8 4 Sur 8 Sudoeste 0 -- -- 55
2019-02-15 18:00:00 14.7 6 Sudoeste 12 Sudoeste 0 -- -- 42
2019-02-15 17:00:00 15.7 7 Sudoeste 15 Sur 0 -- -- 38
2019-02-15 16:00:00 15.3 7 Sudoeste 16 Sudoeste 0 -- -- 40
2019-02-15 15:00:00 14.8 9 Sudoeste 17 Sudoeste 0 -- -- 43
2019-02-15 14:00:00 14.3 9 Sudoeste 14 Sudoeste 0 -- -- 40
2019-02-15 13:00:00 12.7 4 Noroeste 12 Oeste 0 -- -- 45
2019-02-15 12:00:00 10.7 4 Noroeste 8 Oeste 0 -- -- 51
2019-02-15 11:00:00 6.9 0 Calma 5 Nordeste 0 -- -- 62
2019-02-15 10:00:00 2.1 3 Nordeste 6 Nordeste 0 -- -- 79
2019-02-15 09:00:00 -3.1 5 Nordeste 6 Nordeste 0 -- -- 91
2019-02-15 08:00:00 -4.5 4 Nordeste 6 Nordeste 0 -- -- 88
2019-02-15 07:00:00 -4.4 4 Nordeste 6 Nordeste 0 -- -- 87
2019-02-15 06:00:00 -3.8 5 Nordeste 7 Nordeste 0 -- -- 87
2019-02-15 05:00:00 -3.3 5 Nordeste 7 Nordeste 0 -- -- 86
2019-02-15 04:00:00 -2.8 5 Nordeste 9 Nordeste 0 -- -- 84
2019-02-15 03:00:00 -2.1 4 Nordeste 8 Nordeste 0 -- -- 85
2019-02-15 02:00:00 -2.2 5 Nordeste 8 Nordeste 0 -- -- 82
2019-02-15 01:00:00 -1.5 5 Nordeste 9 Nordeste 0 -- -- 83
2019-02-15 00:00:00 -1 4 Nordeste 9 Este 0 -- -- 84
2019-02-14 23:00:00 -0.9 6 Nordeste 8 Nordeste 0 -- -- 78
2019-02-14 22:00:00 0 6 Nordeste 9 Nordeste 0 -- -- 81
2019-02-14 21:00:00 1.9 4 Este 9 Este 0 -- -- 67
2019-02-14 20:00:00 5.7 6 Sudeste 6 Sudeste 0 -- -- 57
2019-02-14 19:00:00 10.5 4 Sur 9 Sudoeste 0 -- -- 44
2019-02-14 18:00:00 14.4 6 Sudoeste 14 Sudoeste 0 -- -- 34
2019-02-14 17:00:00 15.2 8 Sur 17 Sudoeste 0 -- -- 32
2019-02-14 16:00:00 15.1 9 Sur 18 Sur 0 -- -- 32
2019-02-14 15:00:00 14.3 6 Sur 16 Sur 0 -- -- 40
2019-02-14 14:00:00 13.4 9 Sudeste 17 Sudeste 0 -- -- 42
2019-02-14 13:00:00 12.1 7 Sudeste 17 Sur 0 -- -- 46
2019-02-14 12:00:00 10.8 8 Sur 14 Sur 0 -- -- 50
2019-02-14 11:00:00 8.2 7 Sudeste 15 Sudeste 0 -- -- 57
2019-02-14 10:00:00 3.1 6 Nordeste 10 Nordeste 0 -- -- 72
2019-02-14 09:00:00 -1.5 5 Nordeste 10 Nordeste 0 -- -- 86
2019-02-14 08:00:00 -1.4 5 Nordeste 9 Nordeste 0 -- -- 84
2019-02-14 07:00:00 -2 4 Nordeste 8 Nordeste 0 -- -- 85
2019-02-14 06:00:00 -1.6 5 Nordeste 9 Nordeste 0 -- -- 83
2019-02-14 05:00:00 -2.6 5 Nordeste 9 Nordeste 0 -- -- 86
2019-02-14 04:00:00 -3.4 4 Nordeste 6 Nordeste 0 -- -- 86
2019-02-14 03:00:00 -2.5 3 Nordeste 7 Nordeste 0 -- -- 83
2019-02-14 02:00:00 -2.6 4 Nordeste 8 Nordeste 0 -- -- 83
2019-02-14 01:00:00 -2.1 5 Nordeste 8 Nordeste 0 -- -- 84
2019-02-14 00:00:00 -0.5 4 Nordeste 10 Este 0 -- -- 77
2019-02-13 23:00:00 -0.7 3 Nordeste 8 Este 0 -- -- 77
2019-02-13 22:00:00 -0.4 5 Nordeste 6 Este 0 -- -- 82
2019-02-13 21:00:00 1.7 5 Nordeste 7 Sudeste 0 -- -- 66
2019-02-13 20:00:00 2.9 5 Sudeste 7 Sudeste 0 -- -- 64
2019-02-13 19:00:00 9 5 Sur 8 Sur 0 -- -- 48
2019-02-13 18:00:00 12.9 5 Sudoeste 11 Sudoeste 0 -- -- 36
2019-02-13 17:00:00 13.6 6 Sudoeste 15 Oeste 0 -- -- 33
2019-02-13 16:00:00 13.9 8 Sudoeste 17 Oeste 0 -- -- 36
2019-02-13 15:00:00 13.1 9 Sudoeste 16 Sudoeste 0 -- -- 36
2019-02-13 14:00:00 12.5 4 Sudoeste 15 Sur 0 -- -- 33
2019-02-13 13:00:00 11.3 7 Sudoeste 14 Sudoeste 0 -- -- 35
2019-02-13 12:00:00 9.1 3 Noroeste 7 Oeste 0 -- -- 45
2019-02-13 11:00:00 5.6 2 Norte 3 Norte 0 -- -- 61
2019-02-13 10:00:00 1.1 4 Nordeste 8 Norte 0 -- -- 75
2019-02-13 09:00:00 -3.6 4 Nordeste 7 Nordeste 0 -- -- 90
2019-02-13 08:00:00 -4.9 3 Nordeste 7 Nordeste 0 -- -- 85
2019-02-13 07:00:00 -4.9 4 Nordeste 6 Nordeste 0 -- -- 87
2019-02-13 06:00:00 -4.4 5 Nordeste 7 Nordeste 0 -- -- 87
2019-02-13 05:00:00 -4.1 4 Nordeste 8 Nordeste 0 -- -- 83
2019-02-13 04:00:00 -3.8 5 Nordeste 8 Nordeste 0 -- -- 85
2019-02-13 03:00:00 -3.4 4 Nordeste 6 Nordeste 0 -- -- 88
2019-02-13 02:00:00 -2.9 6 Nordeste 9 Nordeste 0 -- -- 88
2019-02-13 01:00:00 -2.3 4 Nordeste 8 Nordeste 0 -- -- 83
2019-02-13 00:00:00 -1.7 5 Nordeste 9 Nordeste 0 -- -- 86
2019-02-12 23:00:00 -1.5 4 Este 6 Este 0 -- -- 79
2019-02-12 22:00:00 -0.5 5 Nordeste 9 Nordeste 0 -- -- 74
2019-02-12 21:00:00 0.7 5 Nordeste 7 Nordeste 0 -- -- 72
2019-02-12 20:00:00 3 2 Sudoeste 6 Oeste 0 -- -- 62
2019-02-12 19:00:00 8.9 4 Sudoeste 8 Sur 0 -- -- 45
2019-02-12 18:00:00 12.9 5 Sur 11 Sur 0 -- -- 28
2019-02-12 17:00:00 13.4 8 Sur 15 Sudeste 0 -- -- 27
2019-02-12 16:00:00 13.4 7 Sudoeste 16 Oeste 0 -- -- 35
2019-02-12 15:00:00 12.4 10 Sudoeste 19 Sudoeste 0 -- -- 39
2019-02-12 14:00:00 11.2 8 Sudoeste 15 Oeste 0 -- -- 45
2019-02-12 13:00:00 9.3 6 Sudoeste 17 Sudeste 0 -- -- 52
2019-02-12 12:00:00 6.9 9 Sudeste 17 Sur 0 -- -- 62
2019-02-12 11:00:00 4.8 6 Sudeste 14 Sudeste 0 -- -- 68
2019-02-12 10:00:00 1 4 Nordeste 9 Nordeste 0 -- -- 87
2019-02-12 09:00:00 -2.8 0 Calma 8 Nordeste 0 -- -- 96
2019-02-12 08:00:00 -3.6 4 Nordeste 8 Nordeste 0 -- -- 95
2019-02-12 07:00:00 -4.4 3 Nordeste 5 Nordeste 0 -- -- 92
2019-02-12 06:00:00 -3.2 3 Nordeste 9 Este 0 -- -- 92
2019-02-12 05:00:00 -2.5 5 Este 10 Norte 0 -- -- 92
2019-02-12 04:00:00 -2.2 6 Norte 9 Nordeste 0 -- -- 94
2019-02-12 03:00:00 -2.4 4 Nordeste 7 Nordeste 0 -- -- 93
2019-02-12 02:00:00 -1.4 5 Nordeste 8 Nordeste 0 -- -- 93
2019-02-12 01:00:00 -2.2 4 Nordeste 6 Nordeste 0 -- -- 92
2019-02-12 00:00:00 -1.3 0 Calma 6 Nordeste 0 -- -- 89
2019-02-11 23:00:00 -0.5 4 Nordeste 5 Nordeste 0 -- -- 89
2019-02-11 22:00:00 0.9 2 Nordeste 9 Sudeste 0 -- -- 86
2019-02-11 21:00:00 0.5 3 Este 7 Este 0 -- -- 85
2019-02-11 20:00:00 3.3 4 Sudeste 10 Sudeste 0 -- -- 74
2019-02-11 19:00:00 6.2 8 Sudeste 14 Sudeste 0 -- -- 65
2019-02-11 18:00:00 8.5 8 Sudeste 13 Sudeste 0 -- -- 56
2019-02-11 17:00:00 9.3 6 Sudeste 19 Sudeste 0 -- -- 55
2019-02-11 16:00:00 10 5 Sudoeste 13 Oeste 0 -- -- 50
2019-02-11 15:00:00 8.9 3 Este 12 Este 0 -- -- 56
2019-02-11 14:00:00 7.6 4 Sur 10 Sur 0 -- -- 61
2019-02-11 13:00:00 5.8 4 Nordeste 12 Nordeste 0 -- -- 62
2019-02-11 12:00:00 4.8 3 Sudoeste 10 Sudoeste 0 -- -- 73
2019-02-11 11:00:00 2.7 6 Oeste 10 Oeste 0 -- -- 84
2019-02-11 10:00:00 0.2 0 Calma 3 Nordeste 0 -- -- 94
2019-02-11 09:00:00 -4.4 3 Este 4 Este 0 -- -- 94
2019-02-11 08:00:00 -4.2 2 Este 6 Este 0 -- -- 92
2019-02-11 07:00:00 -4.1 0 Calma 9 Este 0 -- -- 91
2019-02-11 06:00:00 -3.7 2 Este 8 Este 0 -- -- 92
2019-02-11 05:00:00 -3.8 3 Nordeste 4 Este 0 -- -- 92
2019-02-11 04:00:00 -2.9 3 Nordeste 8 Este 0 -- -- 92
2019-02-11 03:00:00 -2.7 2 Sudeste 6 Nordeste 0 -- -- 94
2019-02-11 02:00:00 -2.1 0 Calma 6 Este 0 -- -- 92
2019-02-11 01:00:00 -1.5 0 Calma 4 Nordeste 0 -- -- 91
2019-02-11 00:00:00 0.2 3 Este 10 Nordeste 0 -- -- 87
2019-02-10 23:00:00 1.2 8 Nordeste 10 Nordeste 0 -- -- 89
2019-02-10 22:00:00 0.1 0 Calma 8 Nordeste 0 -- -- 87
2019-02-10 21:00:00 2.5 4 Nordeste 16 Noroeste 0 -- -- 82
2019-02-10 20:00:00 4.6 8 Noroeste 15 Noroeste 0 -- -- 76
2019-02-10 19:00:00 6.5 8 Noroeste 19 Norte 0 -- -- 64
2019-02-10 18:00:00 9.8 9 Noroeste 31 Oeste 0 -- -- 57
2019-02-10 17:00:00 10.7 21 Oeste 36 Oeste 0 -- -- 59
2019-02-10 16:00:00 11.1 18 Oeste 40 Oeste 0 -- -- 56
2019-02-10 15:00:00 10.5 23 Oeste 50 Oeste 0 -- -- 69
2019-02-10 14:00:00 9.5 15 Oeste 33 Sudoeste 0 -- -- 88
2019-02-10 13:00:00 8.5 13 Sudoeste 28 Oeste 0 -- -- 98
2019-02-10 12:00:00 7.6 16 Sudoeste 30 Sudoeste 0.2 -- -- 98
2019-02-10 11:00:00 7 13 Sudoeste 31 Sudoeste 0.2 -- -- 97
2019-02-10 10:00:00 6.5 14 Sudoeste 28 Sudoeste 0.8 -- -- 97
2019-02-10 09:00:00 6.1 9 Sudoeste 28 Sudoeste 1.2 -- -- 97
2019-02-10 08:00:00 6.1 19 Sudoeste 37 Sudoeste 0 -- -- 96
2019-02-10 07:00:00 5.8 18 Sudoeste 33 Sudoeste 0 -- -- 95
2019-02-10 06:00:00 5.7 17 Sudoeste 35 Sudoeste 0 -- -- 94
2019-02-10 05:00:00 5.6 15 Sudoeste 30 Sur 0 -- -- 93
2019-02-10 04:00:00 5.6 14 Sudoeste 27 Sudoeste 0 -- -- 91
2019-02-10 03:00:00 5.3 12 Sur 26 Sudoeste 0 -- -- 91
2019-02-10 02:00:00 5.2 16 Sudoeste 30 Sur 0 -- -- 89
2019-02-10 01:00:00 5 10 Sudoeste 22 Sudoeste 0 -- -- 87
2019-02-10 00:00:00 5 9 Sudoeste 21 Sudoeste 0 -- -- 86
2019-02-09 23:00:00 5.4 9 Sudoeste 23 Sudoeste 0 -- -- 84
2019-02-09 22:00:00 5.6 9 Sudoeste 20 Sudoeste 0 -- -- 83
2019-02-09 21:00:00 6.2 9 Sudoeste 18 Sudoeste 0 -- -- 80
2019-02-09 20:00:00 6.5 8 Sudoeste 22 Sudoeste 0 -- -- 78
2019-02-09 19:00:00 7 8 Sudoeste 18 Sudoeste 0 -- -- 77
2019-02-09 18:00:00 8.1 13 Sudoeste 27 Sudoeste 0 -- -- 71
2019-02-09 17:00:00 8.6 18 Sudoeste 28 Sudoeste 0 -- -- 69
2019-02-09 16:00:00 6.8 3 Nordeste 8 Nordeste 0 -- -- 86
2019-02-09 15:00:00 5.8 3 Norte 6 Oeste 0 -- -- 91
2019-02-09 14:00:00 5.5 0 Calma 8 Oeste 0 -- -- 91
2019-02-09 13:00:00 5.1 2 Oeste 12 Sur 0 -- -- 96
2019-02-09 12:00:00 4.6 5 Sudoeste 11 Sudoeste 0 -- -- 98
2019-02-09 11:00:00 3.8 4 Sur 6 Sudeste 0 -- -- 99
2019-02-09 10:00:00 3.6 0 Calma 5 Nordeste 0 -- -- 99
2019-02-09 09:00:00 3.4 0 Calma 8 Sudoeste 0 -- -- 99
2019-02-09 08:00:00 3.5 4 Sur 9 Sudoeste 0 -- -- 98
2019-02-09 07:00:00 3.6 6 Sudoeste 14 Sudoeste 0 -- -- 98
2019-02-09 06:00:00 3.4 3 Sudoeste 6 Sudoeste 0 -- -- 98
2019-02-09 05:00:00 3.1 3 Sudoeste 9 Sudoeste 0 -- -- 98
2019-02-09 04:00:00 3.1 5 Sudoeste 13 Sudoeste 0 -- -- 97
2019-02-09 03:00:00 3.1 7 Sur 14 Sudoeste 0 -- -- 96
2019-02-09 02:00:00 3.1 6 Sudeste 9 Sudeste 0 -- -- 96
2019-02-09 01:00:00 3.2 0 Calma 11 Sudoeste 0 -- -- 92
2019-02-09 00:00:00 4 6 Sudoeste 13 Sur 0 -- -- 91
2019-02-08 23:00:00 3.7 4 Sudeste 10 Este 0 -- -- 88
2019-02-08 22:00:00 3.2 3 Sur 10 Nordeste 0 -- -- 87
2019-02-08 21:00:00 3.3 0 Calma 8 Este 0 -- -- 88
2019-02-08 20:00:00 3.6 4 Este 9 Nordeste 0 -- -- 86
2019-02-08 19:00:00 4.2 4 Nordeste 8 Nordeste 0 -- -- 84
2019-02-08 18:00:00 5.7 4 Nordeste 10 Norte 0 -- -- 80
2019-02-08 17:00:00 6.3 4 Norte 10 Norte 0 -- -- 78
2019-02-08 16:00:00 6.6 4 Sudoeste 16 Sur 0 -- -- 78
2019-02-08 15:00:00 4 5 Sudoeste 13 Sudoeste 0 -- -- 85
2019-02-08 14:00:00 3.9 6 Sur 14 Sur 0 -- -- 85
2019-02-08 13:00:00 3.9 7 Sur 15 Sudoeste 0 -- -- 87
2019-02-08 12:00:00 4.3 5 Sudoeste 9 Sur 0 -- -- 88
2019-02-08 11:00:00 3 3 Sur 9 Sur 0 -- -- 92
2019-02-08 10:00:00 -0.1 2 Este 5 Nordeste 0 -- -- 95
2019-02-08 09:00:00 -3.9 4 Nordeste 5 Nordeste 0 -- -- 95
2019-02-08 08:00:00 -4.2 2 Nordeste 5 Nordeste 0 -- -- 94
2019-02-08 07:00:00 -4.1 2 Este 4 Nordeste -- -- -- 94
2019-02-08 06:00:00 -3.5 2 Nordeste 5 Nordeste -- -- -- 93
2019-02-08 05:00:00 -2.3 0 Calma 8 Norte -- -- -- 94
2019-02-08 04:00:00 -2.2 4 Nordeste 9 Nordeste -- -- -- 95
2019-02-08 03:00:00 -2.1 3 Norte 6 Nordeste -- -- -- 95
2019-02-08 02:00:00 -2.3 3 Nordeste 5 Norte -- -- -- 93
2019-02-08 01:00:00 -1.5 2 Nordeste 7 Este -- -- -- 91
2019-02-08 00:00:00 -1.4 4 Este 5 Nordeste -- -- -- 91
2019-02-07 23:00:00 -0.4 4 Nordeste 7 Nordeste -- -- -- 91
2019-02-07 22:00:00 -0.1 2 Nordeste 4 Este -- -- -- 85
2019-02-07 21:00:00 1.8 0 Calma 5 Sudeste -- -- -- 81
2019-02-07 20:00:00 3.7 4 Sur 7 Sur -- -- -- 76
2019-02-07 19:00:00 7.6 4 Sudoeste 11 Sudoeste -- -- -- 67
2019-02-07 18:00:00 10.6 6 Oeste 16 Oeste -- -- -- 56
2019-02-07 17:00:00 11.3 9 Oeste 21 Sudoeste -- -- -- 54
2019-02-07 16:00:00 11.1 11 Sudoeste 22 Sudoeste -- -- -- 55
2019-02-07 15:00:00 11.2 10 Oeste 25 Oeste -- -- -- 57
2019-02-07 14:00:00 10.6 9 Oeste 18 Oeste -- -- -- 57
2019-02-07 13:00:00 9.7 10 Oeste 21 Oeste -- -- -- 62
2019-02-07 12:00:00 7.3 7 Sudoeste 12 Sudoeste -- -- -- 77
2019-02-07 11:00:00 4.8 0 Calma -- -- -- -- -- 87
2019-02-07 10:00:00 -- -- -- -- -- -- -- -- --
2019-02-07 09:00:00 -1.7 0 Calma -- -- -- -- -- 94
2019-02-07 08:00:00 -0.7 0 Calma 7 Este -- -- -- 95
2019-02-07 07:00:00 -0.5 0 Calma 6 Nordeste -- -- -- 95
2019-02-07 06:00:00 -1 2 Sur 4 Este -- -- -- 95
2019-02-07 05:00:00 -1.2 3 Este 6 Sur -- -- -- 91
2019-02-07 04:00:00 0.1 0 Calma 4 Noroeste -- -- -- 89
2019-02-07 03:00:00 2.8 0 Calma 9 Sudoeste -- -- -- 81
2019-02-07 02:00:00 3.2 0 Calma 4 Sudoeste -- -- -- 89
2019-02-07 01:00:00 3 2 Sudoeste 10 Norte -- -- -- 93
2019-02-07 00:00:00 2.1 0 Calma 5 Nordeste -- -- -- 93
2019-02-06 23:00:00 2 3 Nordeste 5 Norte -- -- -- 93
2019-02-06 22:00:00 3.1 4 Nordeste 6 Nordeste -- -- -- 89
2019-02-06 21:00:00 5.3 4 Nordeste 7 Nordeste -- -- -- 84
2019-02-06 20:00:00 5.6 3 Sur 4 Sudeste -- -- -- 82
2019-02-06 19:00:00 7.8 3 Sur 4 Sur -- -- -- 77
2019-02-06 18:00:00 10.2 3 Sudoeste 13 Sudoeste -- -- -- 71
2019-02-06 17:00:00 11 9 Sudoeste 14 Sudoeste -- -- -- 64
2019-02-06 16:00:00 11.5 10 Sudoeste 22 Oeste -- -- -- 62
2019-02-06 15:00:00 11.7 11 Sudoeste 21 Sudoeste -- -- -- 63
2019-02-06 14:00:00 11.1 9 Sudoeste 17 Sudoeste -- -- -- 68
2019-02-06 13:00:00 10.3 7 Sudoeste 14 Sudoeste -- -- -- 71
2019-02-06 12:00:00 7.9 3 Noroeste 8 Sur -- -- -- 84
2019-02-06 11:00:00 4.1 3 Nordeste 4 Nordeste -- -- -- 90
2019-02-06 10:00:00 0.8 3 Nordeste 6 Nordeste -- -- -- 96
2019-02-06 09:00:00 -2.3 4 Nordeste 7 Nordeste -- -- -- 96
2019-02-06 08:00:00 -2.1 3 Nordeste 7 Nordeste -- -- -- 97
2019-02-06 07:00:00 -1.7 3 Nordeste 8 Nordeste -- -- -- 96
2019-02-06 06:00:00 -1.4 5 Nordeste 8 Nordeste -- -- -- 96
2019-02-06 05:00:00 -1.1 5 Nordeste 8 Nordeste -- -- -- 98
2019-02-06 04:00:00 -1.2 4 Nordeste 9 Nordeste -- -- -- 96
2019-02-06 03:00:00 -1.1 4 Nordeste 8 Nordeste -- -- -- 96
2019-02-06 02:00:00 -1.2 4 Nordeste 6 Nordeste -- -- -- 96
2019-02-06 01:00:00 -1.3 3 Nordeste 6 Nordeste -- -- -- 94
2019-02-06 00:00:00 -0.7 4 Nordeste 5 Nordeste -- -- -- 95
2019-02-05 23:00:00 -0.5 3 Nordeste 6 Nordeste -- -- -- 92
2019-02-05 22:00:00 0.3 4 Este 5 Nordeste -- -- -- 91
2019-02-05 21:00:00 2.2 5 Nordeste 7 Este -- -- -- 88
2019-02-05 20:00:00 3.8 3 Sudoeste 6 Sur -- -- -- 85
2019-02-05 19:00:00 7 3 Sudoeste 9 Sudoeste -- -- -- 73
2019-02-05 18:00:00 10.9 5 Sudoeste 14 Sudoeste -- -- -- 66
2019-02-05 17:00:00 11.7 7 Sudoeste 17 Sudoeste -- -- -- 62
2019-02-05 16:00:00 11.5 10 Sudoeste 17 Sudoeste -- -- -- 62
2019-02-05 15:00:00 11 9 Sudoeste 18 Oeste -- -- -- 63
2019-02-05 14:00:00 9.9 6 Sudoeste 15 Sur -- -- -- 68
2019-02-05 13:00:00 8.8 5 Sudoeste 12 Sudoeste -- -- -- 71
2019-02-05 12:00:00 6.9 3 Sudoeste 6 Noroeste -- -- -- 76
2019-02-05 11:00:00 3.5 0 Calma 6 Nordeste -- -- -- 85
2019-02-05 10:00:00 0.6 4 Nordeste 6 Nordeste -- -- -- 94
2019-02-05 09:00:00 -3.1 3 Este 6 Nordeste -- -- -- 94
2019-02-05 08:00:00 -3.2 3 Nordeste 5 Este -- -- -- 96
2019-02-05 07:00:00 -3.4 0 Calma 3 Nordeste -- -- -- 94
2019-02-05 06:00:00 -2.8 0 Calma 6 Este -- -- -- 94
2019-02-05 05:00:00 -2.6 3 Este 4 Este -- -- -- 93
2019-02-05 04:00:00 -2.3 2 Este 5 Este -- -- -- 92
2019-02-05 03:00:00 -2 4 Este 7 Este -- -- -- 93
2019-02-05 02:00:00 -0.2 0 Calma 5 Nordeste -- -- -- 89
2019-02-05 01:00:00 -0.1 3 Este 4 Norte -- -- -- 91
2019-02-05 00:00:00 0.1 0 Calma 10 Nordeste -- -- -- 89
2019-02-04 23:00:00 -0.9 0 Calma 5 Este -- -- -- 90
2019-02-04 22:00:00 -0.5 3 Este 5 Este -- -- -- 85
2019-02-04 21:00:00 1.8 3 Este -- -- -- -- -- 79
2019-02-04 20:00:00 2.7 0 Calma 6 Sudoeste -- -- -- 76
2019-02-04 19:00:00 4 4 Sudoeste 8 Sudoeste -- -- -- 69
2019-02-04 18:00:00 5.1 4 Sudoeste 11 Oeste -- -- -- 64
2019-02-04 17:00:00 7 6 Sudoeste 11 Sudoeste -- -- -- 56
2019-02-04 16:00:00 6.1 7 Sur 14 Sudoeste -- -- -- 56
2019-02-04 15:00:00 6.3 7 Sur 13 Sur -- -- -- 53
2019-02-04 14:00:00 5 5 Sudoeste 11 Sudoeste -- -- -- 57
2019-02-04 13:00:00 3.1 6 Sudoeste 12 Sudoeste -- -- -- 62
2019-02-04 12:00:00 0.2 0 Calma 6 Sudoeste -- -- -- 78
2019-02-04 11:00:00 -1.9 2 Nordeste 8 Nordeste -- -- -- 86
2019-02-04 10:00:00 -3.8 3 Norte 8 Nordeste -- -- -- 88
2019-02-04 09:00:00 -6 3 Nordeste -- -- -- -- -- 94
2019-02-04 08:00:00 -6.9 2 Este 7 Este -- -- -- 89
2019-02-04 07:00:00 -6.2 5 Nordeste 8 Nordeste -- -- -- 91
2019-02-04 06:00:00 -6.4 4 Nordeste 8 Nordeste -- -- -- 90
2019-02-04 05:00:00 -6.2 4 Nordeste 6 Nordeste -- -- -- 92
2019-02-04 04:00:00 -6.5 2 Nordeste 6 Este -- -- -- 89
2019-02-04 03:00:00 -5.8 4 Nordeste 6 Nordeste -- -- -- 90
2019-02-04 02:00:00 -5.9 3 Nordeste 6 Nordeste -- -- -- 88
2019-02-04 01:00:00 -5.8 3 Este 6 Este -- -- -- 90
2019-02-04 00:00:00 -4.8 3 Nordeste 8 Nordeste -- -- -- 87
2019-02-03 23:00:00 -4.5 3 Este 12 Nordeste -- -- -- 86
2019-02-03 22:00:00 -3.8 3 Nordeste 8 Nordeste -- -- -- 83
2019-02-03 21:00:00 -3.1 5 Nordeste 7 Nordeste -- -- -- 82
2019-02-03 20:00:00 -2.7 3 Este 6 Este -- -- -- 79
2019-02-03 19:00:00 0.5 2 Este 6 Nordeste -- -- -- 71
2019-02-03 18:00:00 4.1 2 Norte 8 Nordeste -- -- -- 48
2019-02-03 17:00:00 4.3 6 Nordeste 16 Norte -- -- -- 46
2019-02-03 16:00:00 4.6 8 Norte 18 Norte -- -- -- 45
2019-02-03 15:00:00 4.2 6 Nordeste 18 Norte -- -- -- 49
2019-02-03 14:00:00 3.7 9 Norte 19 Norte -- -- -- 55
2019-02-03 13:00:00 2.6 11 Noroeste 18 Noroeste -- -- -- 62
2019-02-03 12:00:00 1.8 4 Noroeste 10 Noroeste -- -- -- 69
2019-02-03 11:00:00 0.2 3 Noroeste 6 Oeste -- -- -- 77
2019-02-03 10:00:00 -3.3 2 Sudoeste 12 Este -- -- -- 91
2019-02-03 09:00:00 -6.2 6 Nordeste 8 Nordeste -- -- -- 92
2019-02-03 08:00:00 -6.3 0 Calma 5 Este -- -- -- 92
2019-02-03 07:00:00 -5.7 3 Sur 11 Nordeste -- -- -- 91
2019-02-03 06:00:00 -5.2 2 Oeste 10 Este -- -- -- 90
2019-02-03 05:00:00 -4.6 2 Norte 9 Oeste -- -- -- 88
2019-02-03 04:00:00 -2.9 5 Oeste 10 Oeste -- -- -- 88
2019-02-03 03:00:00 -2.7 4 Sudoeste 8 Sudoeste -- -- -- 89
2019-02-03 02:00:00 -1.5 4 Noroeste 22 Norte -- -- -- 87
2019-02-03 01:00:00 -1.6 6 Nordeste 15 Noroeste -- -- -- 86
2019-02-03 00:00:00 -1.5 5 Norte 21 Norte -- -- -- 87
2019-02-02 23:00:00 -2.3 2 Sudoeste 6 Este -- -- -- 91
2019-02-02 22:00:00 -1.3 3 Noroeste 8 Sudoeste -- -- -- 94
2019-02-02 21:00:00 -1 3 Sur 8 Sudoeste -- -- -- 95
2019-02-02 20:00:00 -0.6 5 Oeste 14 Norte -- -- -- 93
2019-02-02 19:00:00 -0.5 9 Noroeste 18 Noroeste -- -- -- 90
2019-02-02 18:00:00 0.5 9 Norte 35 Noroeste -- -- -- 84
2019-02-02 17:00:00 1.7 17 Noroeste 30 Noroeste -- -- -- 74
2019-02-02 16:00:00 0.6 22 Norte 36 Norte -- -- -- 83
2019-02-02 15:00:00 0.2 13 Norte 30 Nordeste -- -- -- 89
2019-02-02 14:00:00 0.2 19 Norte 36 Norte -- -- -- 91
2019-02-02 13:00:00 1.2 22 Norte 37 Noroeste -- -- -- 82
2019-02-02 12:00:00 1 24 Norte 44 Norte -- -- -- 79
2019-02-02 11:00:00 0.2 22 Norte 42 Norte -- -- -- 85
2019-02-02 10:00:00 -0.6 12 Norte 26 Noroeste -- -- -- 88
2019-02-02 09:00:00 -1.8 5 Noroeste 12 Noroeste -- -- -- 94
2019-02-02 08:00:00 -1.7 5 Noroeste 13 Noroeste -- -- -- 94
2019-02-02 07:00:00 -1.1 6 Noroeste 41 Noroeste -- -- -- 91
2019-02-02 06:00:00 -1.1 12 Noroeste 35 Noroeste -- -- -- 93
2019-02-02 05:00:00 -0.6 16 Noroeste 29 Noroeste -- -- -- 89
2019-02-02 04:00:00 -0.7 8 Noroeste 23 Noroeste -- -- -- 92
2019-02-02 03:00:00 -0.4 17 Noroeste 27 Noroeste -- -- -- 93
2019-02-02 02:00:00 -0.1 12 Noroeste 26 Noroeste -- -- -- 94
2019-02-02 01:00:00 0 14 Noroeste 25 Noroeste -- -- -- 93
2019-02-02 00:00:00 0 5 Noroeste 19 Noroeste -- -- -- 96
2019-02-01 23:00:00 0.2 14 Noroeste 36 Noroeste -- -- -- 98
2019-02-01 22:00:00 0.1 19 Oeste 35 Oeste -- -- -- 98
2019-02-01 21:00:00 0.1 17 Oeste 35 Oeste -- -- -- 98
2019-02-01 20:00:00 0.1 22 Oeste 44 Oeste -- -- -- 97
2019-02-01 19:00:00 0.5 14 Oeste 31 Oeste -- -- -- 94
2019-02-01 18:00:00 0.9 12 Oeste 42 Oeste -- -- -- 91
2019-02-01 17:00:00 1.5 19 Oeste 44 Oeste -- -- -- 85
2019-02-01 16:00:00 2.4 21 Oeste 45 Oeste -- -- -- 82
2019-02-01 15:00:00 2.2 21 Oeste 36 Oeste -- -- -- 94
2019-02-01 14:00:00 0.4 13 Oeste 46 Sudoeste -- -- -- 97
2019-02-01 13:00:00 1.4 22 Sudoeste 45 Sudoeste -- -- -- 97
2019-02-01 12:00:00 0.6 9 Sudoeste 25 Oeste -- -- -- 97
2019-02-01 11:00:00 0.8 14 Oeste 55 Sudoeste -- -- -- 97
2019-02-01 10:00:00 1.3 24 Sudoeste 41 Sudoeste -- -- -- 98
2019-02-01 09:00:00 0.8 11 Sudoeste 26 Sudoeste -- -- -- 97
2019-02-01 08:00:00 1.1 17 Sudoeste 32 Oeste -- -- -- 94
2019-02-01 07:00:00 1.3 18 Sudoeste 40 Sudoeste -- -- -- 92
2019-02-01 06:00:00 2 16 Sudoeste 32 Sudoeste -- -- -- 92
2019-02-01 05:00:00 2.8 16 Sudoeste 33 Sudoeste -- -- -- 92
2019-02-01 04:00:00 2.6 11 Sudoeste 21 Sudoeste -- -- -- 93
2019-02-01 03:00:00 2.6 9 Sudoeste 19 Sudoeste -- -- -- 90
2019-02-01 02:00:00 3.1 11 Oeste 30 Oeste -- -- -- 82
2019-02-01 01:00:00 3.7 11 Oeste 31 Oeste -- -- -- 86
2019-02-01 00:00:00 4.2 6 Sudoeste 22 Sudoeste -- -- -- 88
2019-01-31 23:00:00 5.1 16 Oeste 36 Oeste -- -- -- 84
2019-01-31 22:00:00 5.6 10 Oeste 35 Oeste -- -- -- 88
2019-01-31 21:00:00 7.2 18 Oeste 46 Oeste -- -- -- 92
2019-01-31 20:00:00 8.1 22 Oeste 41 Oeste -- -- -- 97
2019-01-31 19:00:00 8.4 17 Oeste 37 Oeste -- -- -- 97
2019-01-31 18:00:00 8.8 23 Oeste 47 Oeste -- -- -- 96
2019-01-31 17:00:00 9.5 26 Sudoeste 50 Sudoeste -- -- -- 93
2019-01-31 16:00:00 9.7 23 Sudoeste 50 Sudoeste -- -- -- 95
2019-01-31 15:00:00 9.7 26 Sudoeste 49 Sudoeste -- -- -- 96
2019-01-31 14:00:00 9.5 20 Sudoeste 45 Sudoeste -- -- -- 96
2019-01-31 13:00:00 9.4 19 Sudoeste 41 Sudoeste -- -- -- 95
2019-01-31 12:00:00 8.5 17 Sudoeste 38 Sudoeste -- -- -- 98
2019-01-31 11:00:00 7.9 16 Sudoeste 30 Sudoeste -- -- -- 99
2019-01-31 10:00:00 5.9 6 Sudoeste 22 Sur -- -- -- 99
2019-01-31 09:00:00 4.9 3 Sudoeste 13 Oeste 0 -- -- 99
2019-01-31 08:00:00 3.1 3 Nordeste 5 Nordeste 0 -- -- 98
2019-01-31 07:00:00 2.7 0 Calma 6 Norte 0 -- -- 98
2019-01-31 06:00:00 2.4 2 Este 3 Norte 0 -- -- 98
2019-01-31 05:00:00 2.2 0 Calma 4 Nordeste 0 -- -- 98
2019-01-31 04:00:00 2.1 0 Calma 6 Nordeste 0 -- -- 98
2019-01-31 03:00:00 2 4 Nordeste 7 Nordeste 0 -- -- 98
2019-01-31 02:00:00 1.7 3 Nordeste 7 Norte 0 -- -- 98
2019-01-31 01:00:00 1.7 4 Nordeste 6 Nordeste 0 -- -- 97
2019-01-31 00:00:00 2.1 3 Nordeste 4 Nordeste 0 -- -- 97
2019-01-30 23:00:00 2.1 2 Norte 4 Nordeste 0 -- -- 97
2019-01-30 22:00:00 1.9 2 Norte 9 Nordeste 0 -- -- 96
2019-01-30 21:00:00 2.8 0 Calma 10 Oeste 0 -- -- 97
2019-01-30 20:00:00 3.2 5 Sudoeste 14 Sudoeste 0 -- -- 96
2019-01-30 19:00:00 3.1 6 Sudoeste 18 Sudoeste 0 -- -- 95
2019-01-30 18:00:00 3.1 10 Oeste 23 Oeste 0 -- -- 94
2019-01-30 17:00:00 2.8 3 Noroeste 21 Oeste 0 -- -- 90
2019-01-30 16:00:00 4 13 Oeste 24 Sudoeste 0 -- -- 74
2019-01-30 15:00:00 4 12 Oeste 28 Sudoeste 0 -- -- 69
2019-01-30 14:00:00 4.7 14 Sudoeste 28 Oeste 0 -- -- 61
2019-01-30 13:00:00 3.9 16 Oeste 36 Oeste 0 -- -- 65
2019-01-30 12:00:00 3.5 18 Oeste 31 Oeste 0 -- -- 67
2019-01-30 11:00:00 1.3 6 Oeste 12 Sudoeste 0 -- -- 83
2019-01-30 10:00:00 -0.7 3 Sudoeste 10 Sudoeste 0 -- -- 91
2019-01-30 09:00:00 -2.6 4 Sudoeste 8 Sudoeste 0 -- -- 93
2019-01-30 08:00:00 -2.2 3 Sudoeste 9 Sudoeste 0 -- -- 92
2019-01-30 07:00:00 -2.8 2 Sur 5 Sudeste 0 -- -- 93
2019-01-30 06:00:00 -2 0 Calma 5 Sur 0 -- -- 90
2019-01-30 05:00:00 -1.9 2 Sur 10 Oeste 0 -- -- 89
2019-01-30 04:00:00 -0.6 8 Oeste 20 Oeste 0 -- -- 88
2019-01-30 03:00:00 -0.5 9 Oeste 20 Oeste 0 -- -- 88
2019-01-30 02:00:00 -0.1 10 Oeste 18 Noroeste 0 -- -- 84
2019-01-30 01:00:00 0.9 8 Sudoeste 19 Oeste 0 -- -- 79
2019-01-30 00:00:00 0.6 5 Este 14 Oeste 0 -- -- 82
2019-01-29 23:00:00 2.1 6 Noroeste 23 Noroeste 0 -- -- 70
2019-01-29 22:00:00 1.9 5 Sudeste 29 Noroeste 0 -- -- 73
2019-01-29 21:00:00 3.2 16 Noroeste 31 Noroeste 0 -- -- 69
2019-01-29 20:00:00 2 8 Noroeste 19 Noroeste 0 -- -- 76
2019-01-29 19:00:00 3.1 9 Noroeste 22 Noroeste 0 -- -- 72
2019-01-29 18:00:00 4.6 9 Noroeste 30 Oeste 0 -- -- 70
2019-01-29 17:00:00 6.4 19 Noroeste 40 Noroeste 0 -- -- 69
2019-01-29 16:00:00 8.7 17 Noroeste 50 Noroeste 0 -- -- 64
2019-01-29 15:00:00 9.2 24 Oeste 55 Oeste 0 -- -- 67
2019-01-29 14:00:00 8.1 31 Oeste 53 Oeste 0 -- -- 70
2019-01-29 13:00:00 7 23 Oeste 36 Oeste 0 -- -- 82
2019-01-29 12:00:00 5.9 19 Oeste 48 Sudoeste 0 -- -- 84
2019-01-29 11:00:00 4.1 13 Sudoeste 26 Sudoeste 0 -- -- 93
2019-01-29 10:00:00 2.3 9 Sudoeste 22 Sudoeste 0 -- -- 93
2019-01-29 09:00:00 2.7 3 Sudoeste 19 Oeste 0 -- -- 92
2019-01-29 08:00:00 2.8 4 Sudoeste 24 Oeste 0 -- -- 91
2019-01-29 07:00:00 0.5 5 Oeste 16 Oeste 0 -- -- 92
2019-01-29 06:00:00 -0.3 5 Sudoeste 8 Sudoeste 0 -- -- 90
2019-01-29 05:00:00 -1 4 Sur 6 Sur 0 -- -- 90
2019-01-29 04:00:00 -1.7 0 Calma 3 Sur 0 -- -- 89
2019-01-29 03:00:00 -1.6 3 Este 6 Este 0 -- -- 90
2019-01-29 02:00:00 -2.4 0 Calma 2 Noroeste 0 -- -- 91
2019-01-29 01:00:00 -2.3 0 Calma 6 Sur 0 -- -- 86
2019-01-29 00:00:00 -2 2 Oeste 9 Sudoeste 0 -- -- 87
2019-01-28 23:00:00 -1.9 2 Sudeste 6 Noroeste 0 -- -- 83
2019-01-28 22:00:00 0.4 4 Noroeste 8 Oeste 0 -- -- 78
2019-01-28 21:00:00 1.8 5 Oeste 12 Oeste 0 -- -- 76
2019-01-28 20:00:00 1.6 2 Nordeste 15 Noroeste 0 -- -- 71
2019-01-28 19:00:00 4.5 10 Oeste 23 Noroeste 0 -- -- 68
2019-01-28 18:00:00 7.2 12 Noroeste 31 Noroeste 0 -- -- 59
2019-01-28 17:00:00 8.6 19 Noroeste 38 Noroeste 0 -- -- 52
2019-01-28 16:00:00 9.3 20 Noroeste 36 Noroeste 0 -- -- 48
2019-01-28 15:00:00 10.4 21 Noroeste 52 Norte 0 -- -- 48
2019-01-28 14:00:00 10.2 33 Norte 52 Norte 0 -- -- 46
2019-01-28 13:00:00 10.6 24 Noroeste 42 Noroeste 0 -- -- 49
2019-01-28 12:00:00 10.3 20 Noroeste 45 Noroeste 0 -- -- 52
2019-01-28 11:00:00 7.5 13 Sur 23 Sur 0 -- -- 68
2019-01-28 10:00:00 5.3 10 Sur 20 Sudoeste 0 -- -- 73
2019-01-28 09:00:00 3.4 12 Sur 21 Sur 0 -- -- 77
2019-01-28 08:00:00 2.3 5 Sur 16 Sudoeste 0 -- -- 81
2019-01-28 07:00:00 1.9 5 Sur 13 Oeste 0 -- -- 84
2019-01-28 06:00:00 1.8 6 Oeste 22 Sudoeste 0 -- -- 84
2019-01-28 05:00:00 0.9 8 Sur 21 Sudoeste 0 -- -- 86
2019-01-28 04:00:00 -0.4 7 Sudoeste 13 Sudoeste 0 -- -- 89
2019-01-28 03:00:00 -1.3 4 Sudoeste 7 Oeste 0 -- -- 86
2019-01-28 02:00:00 -0.7 2 Sudoeste 13 Noroeste 0 -- -- 75
2019-01-28 01:00:00 1.9 10 Oeste 21 Oeste 0 -- -- 69
2019-01-28 00:00:00 2.1 11 Noroeste 24 Oeste 0 -- -- 68
2019-01-27 23:00:00 1 5 Oeste 15 Noroeste 0 -- -- 66
2019-01-27 22:00:00 1.4 5 Oeste 14 Noroeste 0 -- -- 71
2019-01-27 21:00:00 1.2 6 Noroeste 15 Noroeste 0 -- -- 75
2019-01-27 20:00:00 2.4 8 Noroeste 18 Noroeste 0 -- -- 70
2019-01-27 19:00:00 3.4 8 Oeste 20 Noroeste 0 -- -- 65
2019-01-27 18:00:00 5.4 11 Noroeste 26 Noroeste 0 -- -- 52
2019-01-27 17:00:00 7.3 15 Noroeste 33 Noroeste 0 -- -- 44
2019-01-27 16:00:00 7.6 21 Noroeste 44 Noroeste 0 -- -- 43
2019-01-27 15:00:00 7.8 17 Noroeste 46 Norte 0 -- -- 51
2019-01-27 14:00:00 7.9 19 Noroeste 44 Noroeste 0 -- -- 50
2019-01-27 13:00:00 8.2 19 Noroeste 46 Noroeste 0 -- -- 47
2019-01-27 12:00:00 7.2 19 Norte 37 Noroeste 0 -- -- 48
2019-01-27 11:00:00 3.4 5 Oeste 23 Noroeste 0 -- -- 77
2019-01-27 10:00:00 2.9 6 Oeste 20 Noroeste 0 -- -- 74
2019-01-27 09:00:00 2.5 12 Oeste 31 Noroeste 0 -- -- 71
2019-01-27 08:00:00 2.2 16 Noroeste 29 Noroeste 0 -- -- 75
2019-01-27 07:00:00 1 4 Norte 14 Noroeste 0 -- -- 83
2019-01-27 06:00:00 -0.5 6 Este 12 Este 0 -- -- 96
2019-01-27 05:00:00 -0.2 0 Calma 14 Oeste 0 -- -- 92
2019-01-27 04:00:00 1.4 9 Oeste 16 Oeste 0 -- -- 94
2019-01-27 03:00:00 1 8 Sudoeste 18 Sudoeste 0 -- -- 94
2019-01-27 02:00:00 -0.2 5 Sudoeste 9 Sudoeste 0 -- -- 96
2019-01-27 01:00:00 -2.1 2 Sur 5 Este 0 -- -- 96
2019-01-27 00:00:00 -2.6 2 Este 5 Este 0 -- -- 95
2019-01-26 23:00:00 -1.8 0 Calma 5 Nordeste 0 -- -- 93
2019-01-26 22:00:00 -1 2 Nordeste -- -- 0 -- -- 92
2019-01-26 21:00:00 -0.4 2 Este 3 Nordeste 0 -- -- 90
2019-01-26 20:00:00 1.1 0 Calma 4 Este 0 -- -- 85
2019-01-26 19:00:00 4.7 0 Calma 7 Sudoeste 0 -- -- 77
2019-01-26 18:00:00 8.2 5 Sudoeste 15 Sudoeste 0 -- -- 69
2019-01-26 17:00:00 9.7 8 Sudoeste 18 Sudoeste 0 -- -- 64
2019-01-26 16:00:00 9 10 Sudoeste 18 Sudoeste 0 -- -- 68
2019-01-26 15:00:00 8.4 10 Sudoeste 19 Sudoeste 0 -- -- 70
2019-01-26 14:00:00 7.4 10 Sudoeste 18 Oeste 0 -- -- 72
2019-01-26 13:00:00 6.8 8 Sudoeste 18 Sur 0 -- -- 75
2019-01-26 12:00:00 5.2 6 Oeste 14 Oeste 0 -- -- 82
2019-01-26 11:00:00 1.7 3 Nordeste 5 Nordeste 0 -- -- 99
2019-01-26 10:00:00 0.4 4 Nordeste 5 Nordeste 0 -- -- 98
2019-01-26 09:00:00 -0.7 0 Calma 7 Este 0 -- -- 97
2019-01-26 08:00:00 -2.7 3 Nordeste 5 Nordeste 0 -- -- 97
2019-01-26 07:00:00 -3.9 3 Nordeste 5 Nordeste 0 -- -- 96
2019-01-26 06:00:00 -4.3 4 Nordeste 5 Nordeste 0 -- -- 93
2019-01-26 05:00:00 -3.9 2 Este 5 Nordeste 0 -- -- 93
2019-01-26 04:00:00 -3.7 3 Este 5 Este 0 -- -- 94
2019-01-26 03:00:00 -3.6 2 Nordeste 5 Nordeste 0 -- -- 92
2019-01-26 02:00:00 -3.3 4 Este 6 Nordeste 0 -- -- 93
2019-01-26 01:00:00 -2.3 4 Nordeste 6 Este 0 -- -- 92
2019-01-26 00:00:00 -2.1 0 Calma 6 Este 0 -- -- 89
2019-01-25 23:00:00 -0.7 3 Este 6 Este 0 -- -- 90
2019-01-25 22:00:00 0.3 4 Este 8 Sudeste 0 -- -- 84
2019-01-25 21:00:00 2.2 8 Este 12 Este 0 -- -- 83
2019-01-25 20:00:00 3.9 9 Este 20 Nordeste 0 -- -- 78
2019-01-25 19:00:00 6.7 14 Nordeste 27 Norte 0 -- -- 67
2019-01-25 18:00:00 9.5 19 Norte 29 Nordeste 0 -- -- 55
2019-01-25 17:00:00 11.6 14 Nordeste 22 Nordeste 0 -- -- 48
2019-01-25 16:00:00 13.2 11 Norte 20 Norte 0 -- -- 44
2019-01-25 15:00:00 12.9 10 Norte 21 Norte 0 -- -- 43
2019-01-25 14:00:00 12.1 8 Norte 18 Norte 0 -- -- 46
2019-01-25 13:00:00 10.9 9 Nordeste 25 Norte 0 -- -- 50
2019-01-25 12:00:00 9.9 15 Nordeste 26 Norte 0 -- -- 54
2019-01-25 11:00:00 8.5 14 Nordeste 23 Nordeste 0 -- -- 63
2019-01-25 10:00:00 6.1 6 Nordeste 12 Nordeste 0 -- -- 74
2019-01-25 09:00:00 2.8 3 Este 15 Norte 0 -- -- 85
2019-01-25 08:00:00 5.5 10 Norte 26 Noroeste 0 -- -- 74
2019-01-25 07:00:00 5.7 14 Norte 23 Norte 0 -- -- 75
2019-01-25 06:00:00 5.9 8 Norte 17 Norte 0 -- -- 74
2019-01-25 05:00:00 5.6 0 Calma 6 Noroeste 0 -- -- 76
2019-01-25 04:00:00 4.9 2 Sudoeste 9 Sudoeste 0 -- -- 79
2019-01-25 03:00:00 5.4 3 Sudoeste 22 Noroeste 0 -- -- 75
2019-01-25 02:00:00 7.1 14 Norte 29 Norte 0 -- -- 70
2019-01-25 01:00:00 7.9 21 Norte 31 Norte 0 -- -- 68
2019-01-25 00:00:00 8.1 15 Norte 24 Norte 0 -- -- 69
2019-01-24 23:00:00 8.2 10 Norte 23 Norte 0 -- -- 69
2019-01-24 22:00:00 8.3 9 Noroeste 18 Noroeste 0 -- -- 70
2019-01-24 21:00:00 8.4 4 Norte 14 Noroeste 0 -- -- 72
2019-01-24 20:00:00 8 8 Noroeste 14 Noroeste 0 -- -- 74
2019-01-24 19:00:00 8.6 10 Norte 26 Norte 0 -- -- 71
2019-01-24 18:00:00 9.8 16 Norte 50 Norte 0 -- -- 66
2019-01-24 17:00:00 10.7 28 Norte 44 Norte 0 -- -- 63
2019-01-24 16:00:00 11.5 24 Norte 41 Norte 0 -- -- 61
2019-01-24 15:00:00 11.9 29 Norte 54 Norte 0 -- -- 59
2019-01-24 14:00:00 13 26 Norte 52 Norte 0 -- -- 56
2019-01-24 13:00:00 12.4 27 Norte 57 Norte 0 -- -- 58
2019-01-24 12:00:00 12.1 27 Norte 48 Norte 0 -- -- 59
2019-01-24 11:00:00 10.4 8 Noroeste 37 Norte 0 -- -- 65
2019-01-24 10:00:00 10.3 21 Noroeste 46 Norte 0 -- -- 64
2019-01-24 09:00:00 9 26 Norte 35 Norte 0 -- -- 69
2019-01-24 08:00:00 9 12 Noroeste 31 Noroeste 0 -- -- 68
2019-01-24 07:00:00 8.5 17 Noroeste 32 Noroeste 0 -- -- 71
2019-01-24 06:00:00 8.4 14 Noroeste 28 Oeste 0 -- -- 72
2019-01-24 05:00:00 8 16 Noroeste 39 Noroeste 0 -- -- 70
2019-01-24 04:00:00 8.2 11 Noroeste 35 Norte 0 -- -- 70
2019-01-24 03:00:00 8.4 15 Noroeste 36 Oeste 0 -- -- 70
2019-01-24 02:00:00 7.7 11 Noroeste 27 Oeste 0 -- -- 72
2019-01-24 01:00:00 7.7 13 Oeste 35 Noroeste 0 -- -- 72
2019-01-24 00:00:00 7.5 12 Noroeste 40 Noroeste 0 -- -- 73
2019-01-23 23:00:00 7.4 13 Oeste 31 Oeste 0 -- -- 72
2019-01-23 22:00:00 7.2 15 Noroeste 38 Noroeste 0 -- -- 73
2019-01-23 21:00:00 7.6 16 Noroeste 51 Noroeste 0 -- -- 71
2019-01-23 20:00:00 8.3 33 Norte 62 Norte 0 -- -- 67
2019-01-23 19:00:00 8.5 20 Norte 38 Noroeste 0 -- -- 65
2019-01-23 18:00:00 9 24 Norte 63 Norte 0 -- -- 63
2019-01-23 17:00:00 9.6 28 Norte 50 Norte 0 -- -- 63
2019-01-23 16:00:00 11 29 Norte 50 Noroeste 0 -- -- 60
2019-01-23 15:00:00 10.3 24 Norte 40 Norte 0 -- -- 66
2019-01-23 14:00:00 9.9 20 Noroeste 51 Norte 0 -- -- 70
2019-01-23 13:00:00 8.6 21 Norte 48 Norte 0 -- -- 74
2019-01-23 12:00:00 7.8 22 Norte 42 Noroeste 0 -- -- 77
2019-01-23 11:00:00 7.5 21 Noroeste 34 Norte 0 -- -- 78
2019-01-23 10:00:00 6.4 15 Noroeste 32 Noroeste 0 -- -- 83
2019-01-23 09:00:00 5.2 12 Noroeste 22 Noroeste 0 -- -- 86
2019-01-23 08:00:00 5 9 Noroeste 20 Norte 0 -- -- 85
2019-01-23 07:00:00 4 4 Noroeste 24 Sudoeste 0 -- -- 87
2019-01-23 06:00:00 2.9 10 Oeste 24 Oeste 0 -- -- 95
2019-01-23 05:00:00 1.6 12 Oeste 20 Sudoeste 0 -- -- 96
2019-01-23 04:00:00 1.6 12 Oeste 23 Oeste 0 -- -- 96
2019-01-23 03:00:00 1.6 12 Oeste 19 Sudoeste 0 -- -- 96
2019-01-23 02:00:00 1.1 3 Sudoeste 12 Sudoeste 0 -- -- 96
2019-01-23 01:00:00 1.4 6 Sudoeste 13 Oeste 0 -- -- 95
2019-01-23 00:00:00 1.9 8 Oeste 16 Oeste 0 -- -- 94
2019-01-22 23:00:00 2 8 Oeste 19 Oeste 0 -- -- 93
2019-01-22 22:00:00 2.1 10 Oeste 17 Noroeste 0 -- -- 93
2019-01-22 21:00:00 2 8 Oeste 13 Noroeste 0 -- -- 93
2019-01-22 20:00:00 2.3 8 Oeste 16 Oeste 0 -- -- 89
2019-01-22 19:00:00 2.8 9 Oeste 18 Oeste 0 -- -- 85
2019-01-22 18:00:00 2.9 10 Oeste 22 Oeste 0 -- -- 85
2019-01-22 17:00:00 3.4 13 Noroeste 26 Noroeste 0 -- -- 85
2019-01-22 16:00:00 3.6 15 Oeste 30 Oeste 0 -- -- 86
2019-01-22 15:00:00 3.4 18 Noroeste 35 Oeste 0 -- -- 88
2019-01-22 14:00:00 3.5 15 Noroeste 25 Noroeste 0 -- -- 91
2019-01-22 13:00:00 1.9 8 Noroeste 16 Oeste 0 -- -- 98
2019-01-22 12:00:00 0.7 3 Noroeste 6 Oeste 0 -- -- 96
2019-01-22 11:00:00 0 2 Noroeste 5 Sudoeste 0 -- -- 94
2019-01-22 10:00:00 0 0 Calma 7 Oeste 0 -- -- 93
2019-01-22 09:00:00 -0.3 3 Sudoeste 9 Sudoeste 0 -- -- 94
2019-01-22 08:00:00 -0.9 0 Calma 5 Sudoeste 0 -- -- 91
2019-01-22 07:00:00 -1.2 2 Sudoeste 7 Sur 0 -- -- 92
2019-01-22 06:00:00 -2 2 Sur 4 Sudeste 0 -- -- 92
2019-01-22 05:00:00 -1.7 3 Oeste 5 Oeste 0 -- -- 92
2019-01-22 04:00:00 -1.7 2 Sur 4 Sudoeste 0 -- -- 91
2019-01-22 03:00:00 -1.8 0 Calma 6 Sudoeste 0 -- -- 90
2019-01-22 02:00:00 -2 4 Sur 6 Sudoeste 0 -- -- 91
2019-01-22 01:00:00 -2.6 0 Calma 3 Nordeste 0 -- -- 88
2019-01-22 00:00:00 -2.3 0 Calma 5 Este 0 -- -- 87
2019-01-21 23:00:00 -1.3 2 Oeste 9 Nordeste 0 -- -- 86
2019-01-21 22:00:00 -1.4 6 Este 10 Nordeste 0 -- -- 86
2019-01-21 21:00:00 -1.3 0 Calma 11 Nordeste 0 -- -- 82
2019-01-21 20:00:00 -1.6 5 Este 9 Norte 0 -- -- 82
2019-01-21 19:00:00 1.1 2 Este 20 Norte 0 -- -- 71
2019-01-21 18:00:00 4.2 15 Nordeste 25 Norte 0 -- -- 66
2019-01-21 17:00:00 6.3 14 Norte 26 Norte 0 -- -- 56
2019-01-21 16:00:00 6.9 13 Norte 26 Norte 0 -- -- 54
2019-01-21 15:00:00 6.7 13 Norte 23 Norte 0 -- -- 57
2019-01-21 14:00:00 6.7 13 Norte 20 Norte 0 -- -- 57
2019-01-21 13:00:00 6 6 Norte 13 Norte 0 -- -- 62
2019-01-21 12:00:00 4.4 2 Norte 8 Sudoeste 0 -- -- 75
2019-01-21 11:00:00 1.8 0 Calma 8 Norte 0 -- -- 91
2019-01-21 10:00:00 -2 2 Norte 7 Nordeste 0 -- -- 98
2019-01-21 09:00:00 -5.4 3 Este 6 Nordeste 0 -- -- 95
2019-01-21 08:00:00 -5.2 0 Calma 5 Este 0 -- -- 93
2019-01-21 07:00:00 -3.5 0 Calma 6 Nordeste 0 -- -- 96
2019-01-21 06:00:00 -4.4 0 Calma 8 Nordeste 0 -- -- 95
2019-01-21 05:00:00 -3.9 2 Sudoeste 4 Sudoeste 0 -- -- 96
2019-01-21 04:00:00 -3.7 0 Calma 4 Este 0 -- -- 96
2019-01-21 03:00:00 -3.4 3 Este 4 Este 0 -- -- 96
2019-01-21 02:00:00 -3.3 0 Calma -- -- 0 -- -- 96
2019-01-21 01:00:00 -2.9 0 Calma 5 Este 0 -- -- 95
2019-01-21 00:00:00 -2.1 -- -- -- -- 0 -- -- 94
2019-01-20 23:00:00 -1.3 3 Sudeste 7 Nordeste 0 -- -- 96
2019-01-20 22:00:00 0.1 0 Calma 14 Nordeste 0 -- -- 92
2019-01-20 21:00:00 -0.2 6 Este 13 Nordeste 0 -- -- 90
2019-01-20 20:00:00 1.5 6 Norte 15 Norte 0 -- -- 87
2019-01-20 19:00:00 2.6 8 Norte 18 Norte 0 -- -- 82
2019-01-20 18:00:00 3.9 12 Norte 35 Norte 0 -- -- 78
2019-01-20 17:00:00 5.5 13 Norte 23 Norte 0 -- -- 70
2019-01-20 16:00:00 5.7 14 Norte 35 Norte 0 -- -- 72
2019-01-20 15:00:00 6.3 15 Norte 27 Norte 0 -- -- 70
2019-01-20 14:00:00 5.9 14 Noroeste 26 Noroeste 0 -- -- 71
2019-01-20 13:00:00 5.1 10 Norte 20 Norte 0 -- -- 78
2019-01-20 12:00:00 4.6 4 Oeste 7 Noroeste 0 -- -- 86
2019-01-20 11:00:00 2.6 2 Sur 7 Sudoeste 0 -- -- 88
2019-01-20 10:00:00 1.3 3 Oeste 9 Sudoeste 0 -- -- 95
2019-01-20 09:00:00 0.1 4 Sudoeste 6 Sudoeste 0 -- -- 97
2019-01-20 08:00:00 -0.6 0 Calma 5 Este 0 -- -- 94
2019-01-20 07:00:00 0.5 4 Noroeste 11 Noroeste 0 -- -- 93
2019-01-20 06:00:00 1.2 5 Nordeste 9 Este 0 -- -- 90
2019-01-20 05:00:00 1.7 4 Norte 12 Nordeste 0 -- -- 88
2019-01-20 04:00:00 1.2 6 Norte 10 Norte 0 -- -- 96
2019-01-20 03:00:00 -0.2 0 Calma -- -- 0 -- -- 99
2019-01-20 02:00:00 -1.3 0 Calma -- -- 0 -- -- 97
2019-01-20 01:00:00 -0.6 0 Calma -- -- 0 -- -- 98
2019-01-20 00:00:00 -0.1 0 Calma 6 Nordeste 0 -- -- 98
2019-01-19 23:00:00 0.1 0 Calma 4 Nordeste 0 -- -- 98
2019-01-19 22:00:00 0.2 3 Nordeste 9 Nordeste 0 -- -- 99
2019-01-19 21:00:00 0.1 2 Nordeste 8 Nordeste 0 -- -- 98
2019-01-19 20:00:00 0.1 6 Nordeste 8 Nordeste 0 -- -- 98
2019-01-19 19:00:00 0.1 4 Nordeste 6 Nordeste 0 -- -- 98
2019-01-19 18:00:00 0.4 3 Nordeste 6 Nordeste 0 -- -- 97
2019-01-19 17:00:00 0.5 5 Nordeste 7 Este 0 -- -- 96
2019-01-19 16:00:00 1.1 0 Calma 5 Sudeste 0 -- -- 94
2019-01-19 15:00:00 1.2 0 Calma 5 Sudeste 0 -- -- 96
2019-01-19 14:00:00 0.8 0 Calma 5 Sudeste 0 -- -- 96
2019-01-19 13:00:00 1 0 Calma 0 Calma 0 -- -- 98
2019-01-19 12:00:00 0.1 0 Calma 2 Nordeste 0 -- -- 99
2019-01-19 11:00:00 -0.3 2 Nordeste 3 Norte 0 -- -- 98
2019-01-19 10:00:00 -0.3 0 Calma 3 Este 0 -- -- 98
2019-01-19 09:00:00 -0.6 0 Calma 5 Sudoeste 0 -- -- 98
2019-01-19 08:00:00 -0.8 2 Sur 8 Sudoeste 0 -- -- 97
2019-01-19 07:00:00 -0.7 3 Sur 12 Sudoeste 0 -- -- 97
2019-01-19 06:00:00 0.1 5 Sur 13 Sudoeste 0 -- -- 96
2019-01-19 05:00:00 1 2 Oeste 5 Oeste 0 -- -- 96
2019-01-19 04:00:00 1.2 0 Calma 3 Sudoeste 0 -- -- 95
2019-01-19 03:00:00 1.2 0 Calma 2 Sur 0 -- -- 95
2019-01-19 02:00:00 1.3 0 Calma 7 Norte 0 -- -- 94
2019-01-19 01:00:00 1.3 0 Calma 7 Oeste 0 -- -- 94
2019-01-19 00:00:00 1.3 5 Oeste 14 Oeste 0 -- -- 94